Milos — A8TH8 — position and weather

sailwx.info

Track history (hours):
 
Tides and Currents Weather Stations Pressure Air Temp Water Temp Dewpoint Dewpoint Depression Visibility Wind Speed Wind Dir Waves Ship Positions

Milos

Last reported at 2014-Sep-07 09:21 UTC. Time now 2014-Sep-21 06:10 UTC.
Position N 01°09' E 103°46'.
Warning: this ship's position is 13 days out of date.

Length 190 m; draft 11.5 m.

Type: Cargo ship. MMSI: 636014358.

Date/timePositionNaut miles runAvg speedWind from/ knotsBaromVisibWave heightAir tempDewpointWater temp
2014-Sep-07 09:21N 01°09' E 103°46'1113.4
2014-Sep-07 08:33N 01°14' E 103°56'4 3.8
2014-Sep-07 07:32N 01°17' E 103°58'0 0.1
2014-Sep-07 06:23N 01°17' E 103°58'0 0.0
2014-Sep-07 05:23N 01°17' E 103°58'0 0.0
2014-Sep-07 04:32N 01°17' E 103°58'0 0.0
2014-Sep-07 03:29N 01°17' E 103°58'0 0.1
2014-Sep-07 02:32N 01°17' E 103°58'0 0.0
2014-Sep-07 01:32N 01°17' E 103°58'0 0.0
2014-Sep-06 23:32N 01°17' E 103°58'0 0.1
2014-Sep-06 22:32N 01°17' E 103°58'0 0.1
2014-Sep-06 21:29N 01°17' E 103°58'0 0.0
2014-Sep-06 20:32N 01°17' E 103°58'0 0.0
2014-Sep-06 19:33N 01°17' E 103°58'2 2.0
2014-Sep-06 18:33N 01°16' E 103°59'3 2.5
2014-Sep-06 17:33N 01°16' E 104°01'6 5.5
2014-Sep-06 16:33N 01°17' E 104°07'  
2014-Aug-31 19:33N 22°27' E 119°51'1211.4
2014-Aug-31 18:32N 22°39' E 119°52'1111.7
2014-Aug-31 17:33N 22°50' E 119°52'3110.2
2014-Aug-31 14:33N 23°21' E 119°52'21 9.9
2014-Aug-31 12:23N 23°42' E 119°55'911.1
2014-Aug-31 11:33N 23°51' E 119°58'1212.1
2014-Aug-31 10:33N 24°03' E 120°00'1211.6
2014-Aug-31 09:33N 24°14' E 120°05'  
Track history (hours):
 
Tides and Currents Weather Stations Pressure Air Temp Water Temp Dewpoint Dewpoint Depression Visibility Wind Speed Wind Dir Waves Ship Positions

Milos

Last reported at 2014-Sep-07 09:21 UTC. Time now 2014-Sep-21 06:10 UTC.
Position N 01°09' E 103°46'.
Warning: this ship's position is 13 days out of date.

Length 190 m; draft 11.5 m.

Type: Cargo ship. MMSI: 636014358.

Date/timePositionNaut miles runAvg speedWind from/ knotsBaromVisibWave heightAir tempDewpointWater temp
2014-Sep-07 09:21N 01°09' E 103°46'1113.4
2014-Sep-07 08:33N 01°14' E 103°56'4 3.8
2014-Sep-07 07:32N 01°17' E 103°58'0 0.1
2014-Sep-07 06:23N 01°17' E 103°58'0 0.0
2014-Sep-07 05:23N 01°17' E 103°58'0 0.0
2014-Sep-07 04:32N 01°17' E 103°58'0 0.0
2014-Sep-07 03:29N 01°17' E 103°58'0 0.1
2014-Sep-07 02:32N 01°17' E 103°58'0 0.0
2014-Sep-07 01:32N 01°17' E 103°58'0 0.0
2014-Sep-06 23:32N 01°17' E 103°58'0 0.1
2014-Sep-06 22:32N 01°17' E 103°58'0 0.1
2014-Sep-06 21:29N 01°17' E 103°58'0 0.0
2014-Sep-06 20:32N 01°17' E 103°58'0 0.0
2014-Sep-06 19:33N 01°17' E 103°58'2 2.0
2014-Sep-06 18:33N 01°16' E 103°59'3 2.5
2014-Sep-06 17:33N 01°16' E 104°01'6 5.5
2014-Sep-06 16:33N 01°17' E 104°07'  
2014-Aug-31 19:33N 22°27' E 119°51'1211.4
2014-Aug-31 18:32N 22°39' E 119°52'1111.7
2014-Aug-31 17:33N 22°50' E 119°52'3110.2
2014-Aug-31 14:33N 23°21' E 119°52'21 9.9
2014-Aug-31 12:23N 23°42' E 119°55'911.1
2014-Aug-31 11:33N 23°51' E 119°58'1212.1
2014-Aug-31 10:33N 24°03' E 120°00'1211.6
2014-Aug-31 09:33N 24°14' E 120°05'  

Dump ship's entire track history